createdAt,value
2022-10-13T00:01:01.206Z,96852.97
2022-10-13T00:03:29.055Z,96855.22
2022-10-13T00:05:56.990Z,96854.19
2022-10-13T00:08:26.439Z,96852.41
2022-10-13T00:10:53.438Z,96848.38
2022-10-13T00:13:23.980Z,96844.63
2022-10-13T00:15:51.020Z,96847.78
2022-10-13T00:18:18.182Z,96850.19
2022-10-13T00:20:49.907Z,96850.66
2022-10-13T00:23:17.660Z,96861.94
2022-10-13T00:25:47.034Z,96858.31
2022-10-13T00:28:16.003Z,96853.34
2022-10-13T00:30:43.399Z,96855.78
2022-10-13T00:33:14.959Z,96856.22
2022-10-13T00:35:44.656Z,96849.81
2022-10-13T00:38:16.019Z,96846.03
2022-10-13T00:40:47.517Z,96846.78
2022-10-13T00:43:20.845Z,96852.50
2022-10-13T00:45:50.858Z,96848.75
2022-10-13T00:48:30.811Z,96851.91
2022-10-13T00:50:58.884Z,96856.28
2022-10-13T00:53:35.471Z,96855.22
2022-10-13T00:56:03.470Z,96857.19
2022-10-13T00:58:33.041Z,96854.34
2022-10-13T01:01:00.963Z,96859.00
2022-10-13T01:03:28.259Z,96854.03
2022-10-13T01:05:59.688Z,96861.84
2022-10-13T01:08:29.329Z,96855.41
2022-10-13T01:11:00.798Z,96858.69
2022-10-13T01:14:05.427Z,96856.09
2022-10-13T01:16:53.281Z,96846.16
2022-10-13T01:19:54.817Z,96851.13
2022-10-13T01:22:57.098Z,96849.63
2022-10-13T01:25:37.471Z,96853.84
2022-10-13T01:28:19.600Z,96847.66
2022-10-13T01:30:52.609Z,96846.47
2022-10-13T01:33:38.572Z,96839.06
2022-10-13T01:36:46.776Z,96832.19
2022-10-13T01:39:25.536Z,96831.59
2022-10-13T01:41:57.572Z,96828.63
2022-10-13T01:44:34.437Z,96837.75
2022-10-13T01:47:03.500Z,96836.28
2022-10-13T01:49:34.956Z,96838.69
2022-10-13T01:52:07.807Z,96840.34
2022-10-13T01:54:35.048Z,96831.94
2022-10-13T01:57:02.403Z,96819.16
2022-10-13T01:59:34.145Z,96821.13
2022-10-13T02:02:28.969Z,96816.28
2022-10-13T02:05:08.698Z,96799.63
2022-10-13T02:07:47.531Z,96809.81
2022-10-13T02:10:28.575Z,96804.22
2022-10-13T02:12:59.313Z,96804.22
2022-10-13T02:15:33.170Z,96795.22
2022-10-13T02:18:02.549Z,96803.06
2022-10-13T02:20:31.842Z,96794.81
2022-10-13T02:23:04.442Z,96793.63
2022-10-13T02:25:36.193Z,96786.25
2022-10-13T02:28:04.193Z,96783.53
2022-10-13T02:30:35.850Z,96782.34
2022-10-13T02:33:03.470Z,96781.88
2022-10-13T02:35:31.221Z,96792.41
2022-10-13T02:38:02.182Z,96792.25
2022-10-13T02:40:29.870Z,96800.06
2022-10-13T02:42:57.116Z,96798.88
2022-10-13T02:45:24.454Z,96799.63
2022-10-13T02:47:55.797Z,96790.75
2022-10-13T02:50:23.930Z,96779.00
2022-10-13T02:52:51.228Z,96781.25
2022-10-13T02:55:18.398Z,96771.94
2022-10-13T02:57:46.160Z,96770.25
2022-10-13T03:00:16.644Z,96768.41
2022-10-13T03:02:43.787Z,96765.06
2022-10-13T03:05:12.050Z,96772.31
2022-10-13T03:07:39.105Z,96775.03
2022-10-13T03:10:06.578Z,96776.25
2022-10-13T03:12:33.852Z,96779.22
2022-10-13T03:15:01.339Z,96772.31
2022-10-13T03:17:28.368Z,96777.28
2022-10-13T03:19:56.999Z,96773.06
2022-10-13T03:22:24.098Z,96771.13
2022-10-13T03:24:52.496Z,96780.72
2022-10-13T03:27:19.432Z,96781.94
2022-10-13T03:29:46.787Z,96777.56
2022-10-13T03:32:13.831Z,96776.81
2022-10-13T03:34:41.936Z,96775.31
2022-10-13T03:37:09.535Z,96777.28
2022-10-13T03:39:42.107Z,96772.44
2022-10-13T03:42:12.263Z,96765.53
2022-10-13T03:44:39.423Z,96760.41
2022-10-13T03:47:06.710Z,96759.84
2022-10-13T03:49:33.739Z,96757.41
2022-10-13T03:52:00.867Z,96767.50
2022-10-13T03:54:27.990Z,96764.06
2022-10-13T03:56:55.107Z,96765.25
2022-10-13T03:59:22.144Z,96770.94
2022-10-13T04:01:49.413Z,96764.81
2022-10-13T04:04:17.180Z,96763.88
2022-10-13T04:06:47.536Z,96752.59
2022-10-13T04:09:14.741Z,96751.66
2022-10-13T04:11:43.011Z,96749.25
2022-10-13T04:14:10.194Z,96750.28
2022-10-13T04:16:37.283Z,96747.44
2022-10-13T04:19:06.139Z,96747.44
2022-10-13T04:21:35.529Z,96751.16
2022-10-13T04:24:04.251Z,96753.41
2022-10-13T04:26:34.298Z,96754.72
2022-10-13T04:29:08.091Z,96743.44
2022-10-13T04:31:35.941Z,96740.53
2022-10-13T04:34:03.195Z,96743.56
2022-10-13T04:36:30.789Z,96739.34
2022-10-13T04:38:57.916Z,96734.19
2022-10-13T04:41:26.110Z,96728.63
2022-10-13T04:43:54.299Z,96725.44
2022-10-13T04:46:27.152Z,96723.31
2022-10-13T04:48:56.849Z,96719.38
2022-10-13T04:51:29.555Z,96718.66
2022-10-13T04:53:58.738Z,96715.34
2022-10-13T04:56:26.203Z,96721.06
2022-10-13T04:58:54.673Z,96730.38
2022-10-13T05:01:23.978Z,96725.91
2022-10-13T05:03:55.651Z,96720.00
2022-10-13T05:06:26.491Z,96725.72
2022-10-13T05:08:56.294Z,96728.88
2022-10-13T05:11:24.539Z,96729.19
2022-10-13T05:13:51.798Z,96726.19
2022-10-13T05:16:21.448Z,96725.28
2022-10-13T05:18:50.769Z,96729.00
2022-10-13T05:21:22.417Z,96726.47
2022-10-13T05:23:49.672Z,96725.72
2022-10-13T05:26:18.138Z,96728.44
2022-10-13T05:28:45.940Z,96719.84
2022-10-13T05:31:23.169Z,96724.53
2022-10-13T05:33:52.071Z,96719.09
2022-10-13T05:36:26.507Z,96733.66
2022-10-13T05:38:55.995Z,96727.50
2022-10-13T05:41:26.090Z,96734.41
2022-10-13T05:43:57.743Z,96732.91
2022-10-13T05:46:25.327Z,96731.69
2022-10-13T05:48:52.581Z,96732.00
2022-10-13T05:51:28.814Z,96727.03
2022-10-13T05:54:09.910Z,96732.00
2022-10-13T05:56:42.309Z,96733.31
2022-10-13T05:59:14.291Z,96719.47
2022-10-13T06:01:44.872Z,96727.78
2022-10-13T06:04:17.960Z,96725.38
2022-10-13T06:06:46.178Z,96720.22
2022-10-13T06:09:16.691Z,96712.84
2022-10-13T06:11:43.980Z,96708.19
2022-10-13T06:14:11.009Z,96721.72
2022-10-13T06:16:40.629Z,96719.56
2022-10-13T06:19:08.431Z,96717.16
2022-10-13T06:21:36.818Z,96707.06
2022-10-13T06:24:04.473Z,96700.91
2022-10-13T06:26:31.706Z,96701.75
2022-10-13T06:28:59.890Z,96702.13
2022-10-13T06:31:30.847Z,96708.84
2022-10-13T06:33:58.953Z,96711.94
2022-10-13T06:36:26.454Z,96712.38
2022-10-13T06:38:54.313Z,96709.50
2022-10-13T06:41:21.691Z,96712.22
2022-10-13T06:43:48.866Z,96712.22
2022-10-13T06:46:17.531Z,96709.78
2022-10-13T06:48:44.999Z,96718.75
2022-10-13T06:51:12.910Z,96708.94
2022-10-13T06:53:40.644Z,96706.69
2022-10-13T06:56:09.057Z,96706.97
2022-10-13T06:58:37.400Z,96709.50
2022-10-13T07:01:05.812Z,96714.72
2022-10-13T07:03:33.690Z,96714.44
2022-10-13T07:06:05.068Z,96712.19
2022-10-13T07:08:34.272Z,96722.75
2022-10-13T07:11:25.303Z,96712.13
2022-10-13T07:13:56.843Z,96709.88
2022-10-13T07:16:24.155Z,96714.53
2022-10-13T07:18:51.397Z,96718.00
2022-10-13T07:21:18.722Z,96718.00
2022-10-13T07:23:45.942Z,96716.31
2022-10-13T07:26:16.060Z,96712.03
2022-10-13T07:28:44.409Z,96700.63
2022-10-13T07:31:20.887Z,96695.88
2022-10-13T07:33:50.031Z,96703.72
2022-10-13T07:36:17.974Z,96698.50
2022-10-13T07:38:45.519Z,96707.28
2022-10-13T07:41:15.288Z,96699.59
2022-10-13T07:43:42.933Z,96705.03
2022-10-13T07:46:12.381Z,96707.06
2022-10-13T07:48:39.728Z,96710.63
2022-10-13T07:51:09.050Z,96715.38
2022-10-13T07:53:36.631Z,96713.97
2022-10-13T07:56:06.830Z,96713.78
2022-10-13T07:58:37.944Z,96708.38
2022-10-13T08:01:05.421Z,96712.03
2022-10-13T08:03:40.265Z,96717.34
2022-10-13T08:06:12.079Z,96713.34
2022-10-13T08:08:40.864Z,96713.78
2022-10-13T08:11:16.633Z,96718.00
2022-10-13T08:13:51.931Z,96721.16
2022-10-13T08:16:22.861Z,96718.38
2022-10-13T08:18:50.832Z,96716.91
2022-10-13T08:24:11.042Z,96729.69
2022-10-13T08:26:41.769Z,96720.81
2022-10-13T08:29:21.297Z,96727.13
2022-10-13T08:31:51.599Z,96718.56
2022-10-13T08:34:19.625Z,96718.09
2022-10-13T08:36:47.521Z,96708.47
2022-10-13T08:39:14.966Z,96713.16
2022-10-13T08:41:44.217Z,96709.50
2022-10-13T08:47:35.906Z,96712.78
2022-10-13T08:50:12.559Z,96708.94
2022-10-13T08:52:47.537Z,96703.06
2022-10-13T08:55:22.956Z,96700.63
2022-10-13T08:57:50.312Z,96703.44
2022-10-13T09:00:18.708Z,96724.16
2022-10-13T09:02:50.392Z,96711.38
2022-10-13T09:05:42.147Z,96711.38
2022-10-13T09:08:19.274Z,96719.50
2022-10-13T09:10:52.349Z,96720.03
2022-10-13T09:13:21.377Z,96727.72
2022-10-13T09:15:52.924Z,96717.16
2022-10-13T09:18:30.500Z,96717.88
2022-10-13T09:21:27.162Z,96732.19
2022-10-13T09:24:07.538Z,96732.47
2022-10-13T09:26:38.688Z,96737.44
2022-10-13T09:29:29.264Z,96725.75
2022-10-13T09:32:19.322Z,96715.84
2022-10-13T09:34:48.583Z,96714.63
2022-10-13T09:37:23.416Z,96715.38
2022-10-13T09:40:20.167Z,96710.72
2022-10-13T09:42:53.154Z,96711.91
2022-10-13T09:45:22.519Z,96702.88
2022-10-13T09:48:13.927Z,96701.91
2022-10-13T09:50:49.629Z,96712.38
2022-10-13T09:53:35.476Z,96711.72
2022-10-13T09:56:21.909Z,96709.25
2022-10-13T09:59:15.047Z,96712.06
2022-10-13T10:01:46.517Z,96716.81
2022-10-13T10:04:19.713Z,96712.69
2022-10-13T10:06:47.178Z,96707.84
2022-10-13T10:09:36.194Z,96711.84
2022-10-13T10:12:05.883Z,96724.28
2022-10-13T10:14:36.569Z,96724.81
2022-10-13T10:17:10.196Z,96720.91
2022-10-13T10:20:17.011Z,96719.72
2022-10-13T10:23:04.666Z,96715.13
2022-10-13T10:25:42.307Z,96720.91
2022-10-13T10:28:15.245Z,96715.06
2022-10-13T10:31:25.442Z,96712.63
2022-10-13T10:34:01.700Z,96706.47
2022-10-13T10:36:40.049Z,96699.41
2022-10-13T10:39:32.385Z,96699.22
2022-10-13T10:42:55.170Z,96683.34
2022-10-13T10:45:27.195Z,96684.84
2022-10-13T10:48:02.054Z,96682.19
2022-10-13T10:50:31.382Z,96666.72
2022-10-13T10:53:13.920Z,96656.97
2022-10-13T10:56:01.291Z,96667.13
2022-10-13T10:58:34.979Z,96657.06
2022-10-13T11:01:42.269Z,96661.63
2022-10-13T11:04:40.546Z,96663.50
2022-10-13T11:07:23.448Z,96665.00
2022-10-13T11:09:54.249Z,96666.53
2022-10-13T11:12:22.734Z,96672.75
2022-10-13T11:15:10.085Z,96671.09
2022-10-13T11:17:39.530Z,96669.91
2022-10-13T11:20:35.409Z,96669.69
2022-10-13T11:23:06.205Z,96666.22
2022-10-13T11:25:40.945Z,96663.00
2022-10-13T11:28:23.357Z,96668.44
2022-10-13T11:30:55.844Z,96668.44
2022-10-13T11:33:34.776Z,96661.25
2022-10-13T11:36:41.149Z,96653.34
2022-10-13T11:39:27.817Z,96655.78
2022-10-13T11:42:00.986Z,96644.44
2022-10-13T11:44:39.436Z,96643.97
2022-10-13T11:47:20.114Z,96634.78
2022-10-13T11:50:03.689Z,96619.47
2022-10-13T11:52:46.356Z,96617.47
2022-10-13T11:55:21.791Z,96631.03
2022-10-13T11:57:51.163Z,96627.09
2022-10-13T12:00:19.916Z,96620.94
2022-10-13T12:02:53.448Z,96626.34
2022-10-13T12:05:29.433Z,96623.44
2022-10-13T12:08:02.977Z,96613.78
2022-10-13T12:10:32.995Z,96612.56
2022-10-13T12:13:01.307Z,96614.31
2022-10-13T12:15:38.291Z,96606.66
2022-10-13T12:18:20.405Z,96613.84
2022-10-13T12:20:55.777Z,96604.69
2022-10-13T12:23:23.759Z,96606.44
2022-10-13T12:25:57.791Z,96611.38
2022-10-13T12:28:31.186Z,96596.56
2022-10-13T12:31:00.350Z,96598.81
2022-10-13T12:33:34.804Z,96598.06
2022-10-13T12:36:25.729Z,96591.44
2022-10-13T12:38:56.995Z,96584.78
2022-10-13T12:41:38.209Z,96585.00
2022-10-13T12:44:07.894Z,96575.16
2022-10-13T12:46:46.687Z,96572.91
2022-10-13T12:49:25.454Z,96568.97
2022-10-13T12:52:16.191Z,96558.31
2022-10-13T12:54:52.788Z,96572.94
2022-10-13T12:57:22.524Z,96573.44
2022-10-13T12:59:49.819Z,96572.97
2022-10-13T13:02:32.395Z,96571.22
2022-10-13T13:05:00.282Z,96574.47
2022-10-13T13:07:31.721Z,96565.59
2022-10-13T13:10:08.770Z,96571.03
2022-10-13T13:12:37.076Z,96569.81
2022-10-13T13:15:27.571Z,96571.06
2022-10-13T13:17:59.164Z,96571.84
2022-10-13T13:20:32.682Z,96570.38
2022-10-13T13:22:59.974Z,96563.72
2022-10-13T13:25:27.410Z,96569.41
2022-10-13T13:27:54.861Z,96572.63
2022-10-13T13:30:24.211Z,96577.34
2022-10-13T13:32:51.789Z,96572.41
2022-10-13T13:35:19.249Z,96583.06
2022-10-13T13:37:51.404Z,96574.38
2022-10-13T13:40:22.049Z,96584.03
2022-10-13T13:42:49.391Z,96579.59
2022-10-13T13:45:19.428Z,96576.88
2022-10-13T13:47:49.540Z,96579.84
2022-10-13T13:50:22.433Z,96577.88
2022-10-13T13:52:57.284Z,96572.91
2022-10-13T13:55:29.919Z,96570.97
2022-10-13T13:57:57.974Z,96569.22
2022-10-13T14:00:25.163Z,96565.00
2022-10-13T14:02:56.537Z,96559.06
2022-10-13T14:05:24.690Z,96553.13
2022-10-13T14:07:54.881Z,96559.78
2022-10-13T14:10:22.164Z,96558.56
2022-10-13T14:12:49.220Z,96555.31
2022-10-13T14:15:16.697Z,96557.81
2022-10-13T14:17:43.842Z,96557.34
2022-10-13T14:20:12.154Z,96558.06
2022-10-13T14:22:40.365Z,96559.31
2022-10-13T14:25:08.453Z,96561.03
2022-10-13T14:27:36.806Z,96563.75
2022-10-13T14:30:08.901Z,96555.56
2022-10-13T14:32:38.963Z,96554.81
2022-10-13T14:35:09.270Z,96547.41
2022-10-13T14:37:36.797Z,96552.09
2022-10-13T14:40:06.220Z,96553.59
2022-10-13T14:42:33.426Z,96552.84
2022-10-13T14:45:00.670Z,96559.03
2022-10-13T14:47:29.103Z,96557.81
2022-10-13T14:49:57.362Z,96553.59
2022-10-13T14:52:24.557Z,96554.34
2022-10-13T14:54:51.890Z,96560.25
2022-10-13T14:57:19.627Z,96555.31
2022-10-13T14:59:47.061Z,96556.78
2022-10-13T15:02:14.382Z,96551.34
2022-10-13T15:04:52.283Z,96552.09
2022-10-13T15:07:19.719Z,96551.59
2022-10-13T15:09:52.755Z,96554.31
2022-10-13T15:12:28.362Z,96555.09
2022-10-13T15:14:55.347Z,96551.34
2022-10-13T15:17:22.449Z,96555.06
2022-10-13T15:19:50.170Z,96551.38
2022-10-13T15:22:17.403Z,96549.88
2022-10-13T15:24:45.791Z,96550.63
2022-10-13T15:27:12.979Z,96544.63
2022-10-13T15:29:39.970Z,96548.34
2022-10-13T15:32:09.957Z,96551.06
2022-10-13T15:34:40.450Z,96548.34
2022-10-13T15:37:08.005Z,96547.59
2022-10-13T15:39:38.253Z,96547.59
2022-10-13T15:42:05.973Z,96546.56
2022-10-13T15:44:57.316Z,96542.38
2022-10-13T15:47:23.146Z,96532.72
2022-10-13T15:49:50.371Z,96538.66
2022-10-13T15:52:17.737Z,96543.34
2022-10-13T15:54:45.118Z,96545.84
2022-10-13T15:57:12.650Z,96544.34
2022-10-13T15:59:39.851Z,96537.41
2022-10-13T16:02:07.179Z,96539.38
2022-10-13T16:04:37.511Z,96543.84
2022-10-13T16:07:06.616Z,96541.13
2022-10-13T16:09:33.942Z,96536.16
2022-10-13T16:12:01.203Z,96535.41
2022-10-13T16:14:28.468Z,96528.47
2022-10-13T16:16:58.441Z,96531.19
2022-10-13T16:19:25.689Z,96531.69
2022-10-13T16:21:54.111Z,96529.47
2022-10-13T16:24:21.500Z,96530.22
2022-10-13T16:26:48.734Z,96528.97
2022-10-13T16:29:16.255Z,96526.25
2022-10-13T16:31:43.417Z,96533.41
2022-10-13T16:34:11.223Z,96526.00
2022-10-13T16:36:38.410Z,96532.66
2022-10-13T16:39:05.687Z,96528.72
2022-10-13T16:41:39.670Z,96529.94
2022-10-13T16:44:06.910Z,96530.44
2022-10-13T16:46:34.038Z,96535.13
2022-10-13T16:49:01.412Z,96539.34
2022-10-13T16:51:29.695Z,96533.16
2022-10-13T16:54:02.932Z,96535.13
2022-10-13T16:56:31.908Z,96537.84
2022-10-13T16:59:01.416Z,96530.19
2022-10-13T17:01:30.218Z,96531.69
2022-10-13T17:03:57.931Z,96524.00
2022-10-13T17:06:28.358Z,96531.19
2022-10-13T17:09:00.717Z,96526.97
2022-10-13T17:11:30.456Z,96524.25
2022-10-13T17:13:58.640Z,96529.94
2022-10-13T17:16:32.141Z,96525.72
2022-10-13T17:19:01.184Z,96529.19
2022-10-13T17:21:36.073Z,96539.31
2022-10-13T17:24:05.385Z,96533.88
2022-10-13T17:26:33.428Z,96535.84
2022-10-13T17:29:00.751Z,96534.38
2022-10-13T17:31:27.862Z,96535.59
2022-10-13T17:33:55.129Z,96545.75
2022-10-13T17:36:27.676Z,96543.75
2022-10-13T17:38:56.687Z,96538.31
2022-10-13T17:41:24.431Z,96545.28
2022-10-13T17:43:53.646Z,96543.06
2022-10-13T17:46:41.588Z,96545.50
2022-10-13T17:49:11.708Z,96541.78
2022-10-13T17:51:43.937Z,96541.78
2022-10-13T17:54:15.950Z,96539.81
2022-10-13T17:56:45.394Z,96542.53
2022-10-13T17:59:13.722Z,96541.78
2022-10-13T18:01:42.239Z,96541.28
2022-10-13T18:04:15.997Z,96537.34
2022-10-13T18:06:44.385Z,96540.56
2022-10-13T18:09:17.904Z,96534.38
2022-10-13T18:11:50.206Z,96532.88
2022-10-13T18:14:22.379Z,96530.16
2022-10-13T18:16:52.958Z,96533.88
2022-10-13T18:19:24.542Z,96528.94
2022-10-13T18:21:53.203Z,96540.56
2022-10-13T18:24:20.575Z,96542.03
2022-10-13T18:26:49.792Z,96533.88
2022-10-13T18:29:17.270Z,96529.19
2022-10-13T18:31:44.577Z,96529.94
2022-10-13T18:34:17.193Z,96524.47
2022-10-13T18:36:50.812Z,96531.69
2022-10-13T18:39:36.427Z,96532.41
2022-10-13T18:42:06.727Z,96528.22
2022-10-13T18:44:39.173Z,96532.41
2022-10-13T18:47:07.228Z,96537.59
2022-10-13T18:49:34.267Z,96525.72
2022-10-13T18:52:02.500Z,96533.13
2022-10-13T18:54:30.341Z,96534.38
2022-10-13T18:56:57.863Z,96537.84
2022-10-13T18:59:25.313Z,96536.84
2022-10-13T19:01:52.463Z,96537.31
2022-10-13T19:04:22.919Z,96545.03
2022-10-13T19:06:51.879Z,96541.28
2022-10-13T19:09:19.669Z,96540.53
2022-10-13T19:11:46.872Z,96536.06
2022-10-13T19:14:18.318Z,96544.47
2022-10-13T19:16:45.600Z,96539.03
2022-10-13T19:19:12.869Z,96540.53
2022-10-13T19:21:40.926Z,96541.75
2022-10-13T19:24:11.965Z,96529.88
2022-10-13T19:26:39.841Z,96537.56
2022-10-13T19:29:14.100Z,96528.66
2022-10-13T19:31:42.580Z,96539.03
2022-10-13T19:34:11.673Z,96541.03
2022-10-13T19:36:41.985Z,96539.03
2022-10-13T19:39:21.582Z,96537.81
2022-10-13T19:41:53.088Z,96537.84
2022-10-13T19:44:21.499Z,96544.06
2022-10-13T19:46:49.379Z,96549.97
2022-10-13T19:49:19.670Z,96549.69
2022-10-13T19:51:49.280Z,96546.69
2022-10-13T19:54:18.048Z,96543.97
2022-10-13T19:56:49.677Z,96545.22
2022-10-13T19:59:17.984Z,96545.97
2022-10-13T20:01:45.394Z,96549.19
2022-10-13T20:04:18.717Z,96549.19
2022-10-13T20:06:50.771Z,96547.69
2022-10-13T20:09:19.264Z,96548.16
2022-10-13T20:11:47.706Z,96542.47
2022-10-13T20:14:15.609Z,96538.28
2022-10-13T20:16:43.382Z,96542.47
2022-10-13T20:19:14.052Z,96535.78
2022-10-13T20:21:42.617Z,96540.47
2022-10-13T20:24:13.226Z,96539.47
2022-10-13T20:26:41.227Z,96540.69
2022-10-13T20:29:11.335Z,96547.38
2022-10-13T20:31:39.644Z,96543.19
2022-10-13T20:34:06.848Z,96540.47
2022-10-13T20:36:38.561Z,96539.72
2022-10-13T20:39:06.558Z,96535.50
2022-10-13T20:41:34.261Z,96534.75
2022-10-13T20:44:03.529Z,96542.91
2022-10-13T20:46:33.597Z,96543.38
2022-10-13T20:49:16.322Z,96537.22
2022-10-13T20:51:44.447Z,96548.59
2022-10-13T20:54:13.594Z,96549.31
2022-10-13T20:56:41.308Z,96546.59
2022-10-13T20:59:11.381Z,96545.88
2022-10-13T21:01:39.034Z,96552.03
2022-10-13T21:04:06.773Z,96547.09
2022-10-13T21:06:35.976Z,96544.38
2022-10-13T21:09:05.258Z,96539.69
2022-10-13T21:11:32.779Z,96542.41
2022-10-13T21:14:00.167Z,96545.13
2022-10-13T21:16:29.166Z,96545.88
2022-10-13T21:18:58.199Z,96551.78
2022-10-13T21:21:31.179Z,96542.88
2022-10-13T21:24:00.375Z,96540.91
2022-10-13T21:26:30.087Z,96541.38
2022-10-13T21:28:57.704Z,96541.97
2022-10-13T21:31:25.822Z,96547.63
2022-10-13T21:33:53.384Z,96551.31
2022-10-13T21:36:29.405Z,96544.84
2022-10-13T21:39:03.122Z,96550.78
2022-10-13T21:41:30.183Z,96547.81
2022-10-13T21:43:57.601Z,96550.53
2022-10-13T21:46:29.962Z,96546.31
2022-10-13T21:48:59.810Z,96542.59
2022-10-13T21:51:29.879Z,96541.84
2022-10-13T21:54:01.386Z,96536.41
2022-10-13T21:56:31.076Z,96536.63
2022-10-13T21:59:00.340Z,96535.63
2022-10-13T22:01:28.524Z,96539.34
2022-10-13T22:04:00.948Z,96534.84
2022-10-13T22:06:30.012Z,96533.38
2022-10-13T22:08:59.070Z,96533.88
2022-10-13T22:11:29.124Z,96534.34
2022-10-13T22:13:57.625Z,96533.59
2022-10-13T22:16:27.984Z,96532.09
2022-10-13T22:18:56.990Z,96534.06
2022-10-13T22:21:28.219Z,96536.03
2022-10-13T22:24:00.065Z,96546.91
2022-10-13T22:26:28.832Z,96537.31
2022-10-13T22:28:58.145Z,96536.56
2022-10-13T22:31:26.040Z,96535.31
2022-10-13T22:33:54.027Z,96530.38
2022-10-13T22:36:23.802Z,96530.59
2022-10-13T22:38:52.760Z,96539.50
2022-10-13T22:41:20.623Z,96536.16
2022-10-13T22:43:56.316Z,96529.19
2022-10-13T22:46:26.819Z,96528.16
2022-10-13T22:48:55.240Z,96527.66
2022-10-13T22:51:24.738Z,96528.38
2022-10-13T22:53:52.369Z,96526.41
2022-10-13T22:56:25.172Z,96524.41
2022-10-13T22:59:04.611Z,96526.88
2022-10-13T23:01:33.610Z,96526.13
2022-10-13T23:04:00.953Z,96525.38
2022-10-13T23:06:30.889Z,96522.66
2022-10-13T23:09:01.451Z,96515.72
2022-10-13T23:11:28.571Z,96515.72
2022-10-13T23:13:56.382Z,96516.47
2022-10-13T23:16:25.660Z,96516.47
2022-10-13T23:18:53.599Z,96514.50
2022-10-13T23:21:26.439Z,96518.72
2022-10-13T23:23:56.862Z,96517.97
2022-10-13T23:26:24.222Z,96520.22
2022-10-13T23:28:54.113Z,96524.16
2022-10-13T23:31:21.305Z,96514.78
2022-10-13T23:33:48.913Z,96519.00
2022-10-13T23:36:19.073Z,96523.16
2022-10-13T23:38:55.392Z,96517.75
2022-10-13T23:41:23.220Z,96517.75
2022-10-13T23:43:50.444Z,96522.69
2022-10-13T23:46:17.559Z,96519.22
2022-10-13T23:48:44.547Z,96514.06
2022-10-13T23:51:18.505Z,96511.81
2022-10-13T23:53:46.392Z,96516.78
2022-10-13T23:56:15.199Z,96512.09
2022-10-13T23:58:43.813Z,96514.81
